sensor_id;sensor_type;location;lat;lon;timestamp;pressure;altitude;pressure_sealevel;temperature;humidity
61478;BME280;47345;52.334;10.392;2023-03-26T00:00:14;99675.05;;;8.14;83.41
61478;BME280;47345;52.334;10.392;2023-03-26T00:02:44;99680.71;;;8.14;83.47
61478;BME280;47345;52.334;10.392;2023-03-26T00:05:15;99682.38;;;8.15;83.47
61478;BME280;47345;52.334;10.392;2023-03-26T00:07:45;99685.43;;;8.15;83.79
61478;BME280;47345;52.334;10.392;2023-03-26T00:10:16;99686.99;;;8.16;83.69
61478;BME280;47345;52.334;10.392;2023-03-26T00:12:47;99691.73;;;8.16;83.82
61478;BME280;47345;52.334;10.392;2023-03-26T00:15:17;99691.69;;;8.16;83.67
61478;BME280;47345;52.334;10.392;2023-03-26T00:17:48;99695.00;;;8.16;83.70
61478;BME280;47345;52.334;10.392;2023-03-26T00:20:20;99695.75;;;8.15;83.66
61478;BME280;47345;52.334;10.392;2023-03-26T00:22:50;99699.48;;;8.16;83.61
61478;BME280;47345;52.334;10.392;2023-03-26T00:25:22;99700.23;;;8.17;83.79
61478;BME280;47345;52.334;10.392;2023-03-26T00:27:53;99702.98;;;8.18;83.83
61478;BME280;47345;52.334;10.392;2023-03-26T00:30:24;99700.64;;;8.18;83.75
61478;BME280;47345;52.334;10.392;2023-03-26T00:32:55;99701.10;;;8.19;83.62
61478;BME280;47345;52.334;10.392;2023-03-26T00:35:25;99703.27;;;8.20;83.66
61478;BME280;47345;52.334;10.392;2023-03-26T00:37:57;99701.69;;;8.18;83.78
61478;BME280;47345;52.334;10.392;2023-03-26T00:40:27;99703.47;;;8.21;83.64
61478;BME280;47345;52.334;10.392;2023-03-26T00:43:00;99706.70;;;8.21;83.58
61478;BME280;47345;52.334;10.392;2023-03-26T00:45:30;99711.27;;;8.21;83.32
61478;BME280;47345;52.334;10.392;2023-03-26T00:48:01;99708.05;;;8.21;83.44
61478;BME280;47345;52.334;10.392;2023-03-26T00:50:32;99710.15;;;8.22;83.39
61478;BME280;47345;52.334;10.392;2023-03-26T00:53:03;99711.23;;;8.23;83.68
61478;BME280;47345;52.334;10.392;2023-03-26T00:55:33;99709.30;;;8.24;83.63
61478;BME280;47345;52.334;10.392;2023-03-26T00:58:03;99710.46;;;8.24;83.65
61478;BME280;47345;52.334;10.392;2023-03-26T01:00:35;99709.11;;;8.25;83.68
61478;BME280;47345;52.334;10.392;2023-03-26T01:03:09;99707.65;;;8.25;83.69
61478;BME280;47345;52.334;10.392;2023-03-26T01:05:47;99704.39;;;8.25;83.72
61478;BME280;47345;52.334;10.392;2023-03-26T01:08:25;99711.72;;;8.24;83.90
61478;BME280;47345;52.334;10.392;2023-03-26T01:10:58;99708.00;;;8.24;83.88
61478;BME280;47345;52.334;10.392;2023-03-26T01:13:36;99712.48;;;8.23;84.07
61478;BME280;47345;52.334;10.392;2023-03-26T01:16:16;99719.27;;;8.21;84.23
61478;BME280;47345;52.334;10.392;2023-03-26T01:18:49;99720.50;;;8.20;84.25
61478;BME280;47345;52.334;10.392;2023-03-26T01:21:22;99721.52;;;8.20;84.38
61478;BME280;47345;52.334;10.392;2023-03-26T01:23:59;99722.31;;;8.19;84.62
61478;BME280;47345;52.334;10.392;2023-03-26T01:26:39;99725.66;;;8.18;85.00
61478;BME280;47345;52.334;10.392;2023-03-26T01:29:18;99736.06;;;8.17;85.30
61478;BME280;47345;52.334;10.392;2023-03-26T01:31:56;99729.95;;;8.13;85.47
61478;BME280;47345;52.334;10.392;2023-03-26T01:34:33;99726.77;;;8.13;85.56
61478;BME280;47345;52.334;10.392;2023-03-26T01:37:11;99722.60;;;8.11;85.71
61478;BME280;47345;52.334;10.392;2023-03-26T01:39:49;99724.23;;;8.09;85.52
61478;BME280;47345;52.334;10.392;2023-03-26T01:42:31;99726.54;;;8.07;85.47
61478;BME280;47345;52.334;10.392;2023-03-26T01:45:08;99729.52;;;8.05;85.25
61478;BME280;47345;52.334;10.392;2023-03-26T01:47:40;99729.08;;;8.02;84.98
61478;BME280;47345;52.334;10.392;2023-03-26T01:50:11;99731.48;;;7.99;84.96
61478;BME280;47345;52.334;10.392;2023-03-26T01:52:42;99732.75;;;7.96;84.77
61478;BME280;47345;52.334;10.392;2023-03-26T01:55:13;99731.98;;;7.94;84.65
61478;BME280;47345;52.334;10.392;2023-03-26T01:57:53;99732.20;;;7.90;84.58
61478;BME280;47345;52.334;10.392;2023-03-26T02:00:29;99734.63;;;7.85;84.24
61478;BME280;47345;52.334;10.392;2023-03-26T02:03:07;99731.34;;;7.80;84.33
61478;BME280;47345;52.334;10.392;2023-03-26T02:05:53;99732.73;;;7.77;84.23
61478;BME280;47345;52.334;10.392;2023-03-26T02:08:30;99731.32;;;7.72;84.23
61478;BME280;47345;52.334;10.392;2023-03-26T02:11:06;99729.48;;;7.68;84.40
61478;BME280;47345;52.334;10.392;2023-03-26T02:13:43;99729.58;;;7.64;84.21
61478;BME280;47345;52.334;10.392;2023-03-26T02:16:16;99732.75;;;7.63;84.27
61478;BME280;47345;52.334;10.392;2023-03-26T02:18:49;99735.95;;;7.61;84.34
61478;BME280;47345;52.334;10.392;2023-03-26T02:21:25;99734.52;;;7.59;84.34
61478;BME280;47345;52.334;10.392;2023-03-26T02:23:56;99729.46;;;7.58;84.12
61478;BME280;47345;52.334;10.392;2023-03-26T02:26:33;99728.79;;;7.56;84.06
61478;BME280;47345;52.334;10.392;2023-03-26T02:29:05;99725.79;;;7.53;84.00
61478;BME280;47345;52.334;10.392;2023-03-26T02:31:36;99724.83;;;7.51;83.96
61478;BME280;47345;52.334;10.392;2023-03-26T02:34:06;99725.30;;;7.49;83.67
61478;BME280;47345;52.334;10.392;2023-03-26T02:36:37;99724.95;;;7.46;83.64
61478;BME280;47345;52.334;10.392;2023-03-26T02:39:07;99721.45;;;7.42;83.62
61478;BME280;47345;52.334;10.392;2023-03-26T02:41:39;99721.77;;;7.38;83.51
61478;BME280;47345;52.334;10.392;2023-03-26T02:44:09;99715.94;;;7.36;83.39
61478;BME280;47345;52.334;10.392;2023-03-26T02:46:40;99721.09;;;7.33;83.30
61478;BME280;47345;52.334;10.392;2023-03-26T02:49:10;99722.48;;;7.31;83.45
61478;BME280;47345;52.334;10.392;2023-03-26T02:51:41;99730.30;;;7.29;83.44
61478;BME280;47345;52.334;10.392;2023-03-26T02:54:11;99731.93;;;7.28;83.50
61478;BME280;47345;52.334;10.392;2023-03-26T02:56:44;99732.18;;;7.29;83.58
61478;BME280;47345;52.334;10.392;2023-03-26T02:59:15;99730.52;;;7.29;83.70
61478;BME280;47345;52.334;10.392;2023-03-26T03:01:45;99728.63;;;7.30;83.90
61478;BME280;47345;52.334;10.392;2023-03-26T03:04:15;99724.91;;;7.30;83.70
61478;BME280;47345;52.334;10.392;2023-03-26T03:06:46;99727.88;;;7.30;83.77
61478;BME280;47345;52.334;10.392;2023-03-26T03:09:21;99724.95;;;7.29;83.58
61478;BME280;47345;52.334;10.392;2023-03-26T03:11:51;99723.20;;;7.27;83.58
61478;BME280;47345;52.334;10.392;2023-03-26T03:14:21;99726.37;;;7.25;83.56
61478;BME280;47345;52.334;10.392;2023-03-26T03:16:52;99725.45;;;7.22;83.59
61478;BME280;47345;52.334;10.392;2023-03-26T03:19:22;99725.95;;;7.20;83.67
61478;BME280;47345;52.334;10.392;2023-03-26T03:21:53;99729.23;;;7.17;83.77
61478;BME280;47345;52.334;10.392;2023-03-26T03:24:23;99727.59;;;7.14;83.71
61478;BME280;47345;52.334;10.392;2023-03-26T03:26:55;99727.71;;;7.14;83.65
61478;BME280;47345;52.334;10.392;2023-03-26T03:29:26;99726.54;;;7.12;83.72
61478;BME280;47345;52.334;10.392;2023-03-26T03:31:57;99726.50;;;7.09;83.56
61478;BME280;47345;52.334;10.392;2023-03-26T03:34:28;99727.55;;;7.06;83.57
61478;BME280;47345;52.334;10.392;2023-03-26T03:36:58;99724.16;;;7.03;83.43
61478;BME280;47345;52.334;10.392;2023-03-26T03:39:29;99728.39;;;7.00;83.36
61478;BME280;47345;52.334;10.392;2023-03-26T03:41:59;99733.03;;;6.98;83.39
61478;BME280;47345;52.334;10.392;2023-03-26T03:44:30;99734.95;;;6.95;83.35
61478;BME280;47345;52.334;10.392;2023-03-26T03:47:00;99730.14;;;6.91;83.36
61478;BME280;47345;52.334;10.392;2023-03-26T03:49:30;99731.14;;;6.88;83.32
61478;BME280;47345;52.334;10.392;2023-03-26T03:52:01;99727.46;;;6.85;83.38
61478;BME280;47345;52.334;10.392;2023-03-26T03:54:31;99726.42;;;6.82;83.51
61478;BME280;47345;52.334;10.392;2023-03-26T03:57:02;99717.50;;;6.79;83.45
61478;BME280;47345;52.334;10.392;2023-03-26T03:59:32;99721.39;;;6.77;83.57
61478;BME280;47345;52.334;10.392;2023-03-26T04:02:02;99723.73;;;6.75;83.76
61478;BME280;47345;52.334;10.392;2023-03-26T04:04:33;99719.09;;;6.75;83.77
61478;BME280;47345;52.334;10.392;2023-03-26T04:07:05;99718.46;;;6.77;83.85
61478;BME280;47345;52.334;10.392;2023-03-26T04:09:36;99717.96;;;6.79;83.97
61478;BME280;47345;52.334;10.392;2023-03-26T04:12:07;99718.59;;;6.83;84.02
61478;BME280;47345;52.334;10.392;2023-03-26T04:14:37;99717.52;;;6.87;83.87
61478;BME280;47345;52.334;10.392;2023-03-26T04:17:07;99715.96;;;6.89;84.08
61478;BME280;47345;52.334;10.392;2023-03-26T04:19:38;99715.04;;;6.92;83.74
61478;BME280;47345;52.334;10.392;2023-03-26T04:22:08;99714.77;;;6.94;83.59
61478;BME280;47345;52.334;10.392;2023-03-26T04:24:40;99709.80;;;6.96;83.21
61478;BME280;47345;52.334;10.392;2023-03-26T04:27:13;99710.64;;;6.98;83.19
61478;BME280;47345;52.334;10.392;2023-03-26T04:29:47;99707.59;;;6.98;83.20
61478;BME280;47345;52.334;10.392;2023-03-26T04:32:22;99706.50;;;6.97;82.83
61478;BME280;47345;52.334;10.392;2023-03-26T04:34:55;99703.83;;;6.97;82.85
61478;BME280;47345;52.334;10.392;2023-03-26T04:37:30;99704.70;;;6.96;82.79
61478;BME280;47345;52.334;10.392;2023-03-26T04:40:11;99707.30;;;6.96;82.43
61478;BME280;47345;52.334;10.392;2023-03-26T04:42:42;99712.11;;;6.95;82.21
61478;BME280;47345;52.334;10.392;2023-03-26T04:45:16;99709.31;;;6.96;82.11
61478;BME280;47345;52.334;10.392;2023-03-26T04:47:50;99709.56;;;6.95;82.03
61478;BME280;47345;52.334;10.392;2023-03-26T04:50:21;99709.43;;;6.94;82.11
61478;BME280;47345;52.334;10.392;2023-03-26T04:52:54;99710.40;;;6.94;82.27
61478;BME280;47345;52.334;10.392;2023-03-26T04:55:28;99709.69;;;6.94;82.34
61478;BME280;47345;52.334;10.392;2023-03-26T04:58:01;99708.80;;;6.94;82.58
61478;BME280;47345;52.334;10.392;2023-03-26T05:00:33;99707.34;;;6.93;82.52
61478;BME280;47345;52.334;10.392;2023-03-26T05:03:04;99708.77;;;6.92;82.41
61478;BME280;47345;52.334;10.392;2023-03-26T05:05:38;99708.55;;;6.91;82.44
61478;BME280;47345;52.334;10.392;2023-03-26T05:08:09;99703.20;;;6.91;82.15
61478;BME280;47345;52.334;10.392;2023-03-26T05:10:39;99704.92;;;6.89;82.20
61478;BME280;47345;52.334;10.392;2023-03-26T05:13:10;99704.63;;;6.88;82.28
61478;BME280;47345;52.334;10.392;2023-03-26T05:15:40;99703.59;;;6.88;82.38
61478;BME280;47345;52.334;10.392;2023-03-26T05:18:10;99703.04;;;6.88;82.18
61478;BME280;47345;52.334;10.392;2023-03-26T05:20:41;99700.20;;;6.88;82.29
61478;BME280;47345;52.334;10.392;2023-03-26T05:23:11;99698.16;;;6.86;81.99
61478;BME280;47345;52.334;10.392;2023-03-26T05:25:42;99697.23;;;6.84;81.93
61478;BME280;47345;52.334;10.392;2023-03-26T05:28:12;99697.43;;;6.83;81.75
61478;BME280;47345;52.334;10.392;2023-03-26T05:30:43;99700.15;;;6.81;81.53
61478;BME280;47345;52.334;10.392;2023-03-26T05:33:14;99700.08;;;6.81;81.34
61478;BME280;47345;52.334;10.392;2023-03-26T05:35:44;99700.02;;;6.81;81.20
61478;BME280;47345;52.334;10.392;2023-03-26T05:38:17;99698.48;;;6.80;81.29
61478;BME280;47345;52.334;10.392;2023-03-26T05:40:47;99697.73;;;6.81;81.50
61478;BME280;47345;52.334;10.392;2023-03-26T05:43:18;99696.52;;;6.81;81.38
61478;BME280;47345;52.334;10.392;2023-03-26T05:45:49;99694.55;;;6.83;81.45
61478;BME280;47345;52.334;10.392;2023-03-26T05:48:20;99692.53;;;6.84;81.41
61478;BME280;47345;52.334;10.392;2023-03-26T05:50:52;99694.97;;;6.85;81.26
61478;BME280;47345;52.334;10.392;2023-03-26T05:53:24;99701.98;;;6.85;81.27
61478;BME280;47345;52.334;10.392;2023-03-26T05:55:55;99699.58;;;6.87;81.54
61478;BME280;47345;52.334;10.392;2023-03-26T05:58:27;99694.96;;;6.90;81.59
61478;BME280;47345;52.334;10.392;2023-03-26T06:01:00;99692.78;;;6.94;81.69
61478;BME280;47345;52.334;10.392;2023-03-26T06:03:34;99691.02;;;6.99;81.74
61478;BME280;47345;52.334;10.392;2023-03-26T06:06:07;99689.98;;;7.03;81.70
61478;BME280;47345;52.334;10.392;2023-03-26T06:08:37;99690.48;;;7.08;81.76
61478;BME280;47345;52.334;10.392;2023-03-26T06:11:10;99691.32;;;7.13;81.71
61478;BME280;47345;52.334;10.392;2023-03-26T06:13:42;99690.52;;;7.18;81.75
61478;BME280;47345;52.334;10.392;2023-03-26T06:16:14;99687.80;;;7.23;81.64
61478;BME280;47345;52.334;10.392;2023-03-26T06:18:55;99685.65;;;7.28;81.67
61478;BME280;47345;52.334;10.392;2023-03-26T06:21:27;99679.61;;;7.32;81.59
61478;BME280;47345;52.334;10.392;2023-03-26T06:23:58;99676.89;;;7.36;81.50
61478;BME280;47345;52.334;10.392;2023-03-26T06:26:28;99676.00;;;7.40;81.54
61478;BME280;47345;52.334;10.392;2023-03-26T06:28:58;99674.93;;;7.45;81.76
61478;BME280;47345;52.334;10.392;2023-03-26T06:31:29;99674.02;;;7.50;81.73
61478;BME280;47345;52.334;10.392;2023-03-26T06:33:59;99677.22;;;7.54;81.85
61478;BME280;47345;52.334;10.392;2023-03-26T06:36:30;99672.10;;;7.58;81.92
61478;BME280;47345;52.334;10.392;2023-03-26T06:39:00;99668.23;;;7.63;81.72
61478;BME280;47345;52.334;10.392;2023-03-26T06:41:36;99664.74;;;7.65;81.84
61478;BME280;47345;52.334;10.392;2023-03-26T06:44:06;99662.98;;;7.68;81.65
61478;BME280;47345;52.334;10.392;2023-03-26T06:46:37;99663.20;;;7.69;81.60
61478;BME280;47345;52.334;10.392;2023-03-26T06:49:07;99664.15;;;7.70;81.58
61478;BME280;47345;52.334;10.392;2023-03-26T06:51:37;99665.48;;;7.72;81.69
61478;BME280;47345;52.334;10.392;2023-03-26T06:54:09;99663.26;;;7.76;81.57
61478;BME280;47345;52.334;10.392;2023-03-26T06:56:39;99662.34;;;7.81;81.73
61478;BME280;47345;52.334;10.392;2023-03-26T06:59:10;99660.07;;;7.87;81.42
61478;BME280;47345;52.334;10.392;2023-03-26T07:01:40;99662.17;;;7.93;81.09
61478;BME280;47345;52.334;10.392;2023-03-26T07:04:10;99666.73;;;7.99;81.10
61478;BME280;47345;52.334;10.392;2023-03-26T07:06:41;99666.59;;;8.06;80.78
61478;BME280;47345;52.334;10.392;2023-03-26T07:09:11;99664.67;;;8.11;80.60
61478;BME280;47345;52.334;10.392;2023-03-26T07:11:42;99659.91;;;8.17;80.60
61478;BME280;47345;52.334;10.392;2023-03-26T07:14:12;99664.32;;;8.23;80.45
61478;BME280;47345;52.334;10.392;2023-03-26T07:16:43;99663.83;;;8.28;80.27
61478;BME280;47345;52.334;10.392;2023-03-26T07:19:13;99659.03;;;8.31;80.09
61478;BME280;47345;52.334;10.392;2023-03-26T07:21:45;99656.67;;;8.34;79.64
61478;BME280;47345;52.334;10.392;2023-03-26T07:24:17;99655.65;;;8.36;79.42
61478;BME280;47345;52.334;10.392;2023-03-26T07:26:53;99648.09;;;8.38;79.32
61478;BME280;47345;52.334;10.392;2023-03-26T07:29:32;99646.20;;;8.41;79.24
61478;BME280;47345;52.334;10.392;2023-03-26T07:32:11;99640.67;;;8.46;79.34
61478;BME280;47345;52.334;10.392;2023-03-26T07:34:53;99638.88;;;8.51;79.43
61478;BME280;47345;52.334;10.392;2023-03-26T07:37:33;99638.30;;;8.57;79.31
61478;BME280;47345;52.334;10.392;2023-03-26T07:40:19;99638.94;;;8.62;78.80
61478;BME280;47345;52.334;10.392;2023-03-26T07:43:02;99635.80;;;8.66;78.92
61478;BME280;47345;52.334;10.392;2023-03-26T07:45:40;99634.52;;;8.68;78.42
61478;BME280;47345;52.334;10.392;2023-03-26T07:48:16;99634.02;;;8.69;78.12
61478;BME280;47345;52.334;10.392;2023-03-26T07:50:50;99634.43;;;8.69;78.18
61478;BME280;47345;52.334;10.392;2023-03-26T07:53:22;99633.98;;;8.68;78.05
61478;BME280;47345;52.334;10.392;2023-03-26T07:56:00;99636.55;;;8.67;77.99
61478;BME280;47345;52.334;10.392;2023-03-26T07:58:52;99635.70;;;8.67;78.31
61478;BME280;47345;52.334;10.392;2023-03-26T08:01:34;99632.72;;;8.69;78.15
61478;BME280;47345;52.334;10.392;2023-03-26T08:04:31;99632.31;;;8.72;78.31
61478;BME280;47345;52.334;10.392;2023-03-26T08:07:22;99626.56;;;8.77;78.23
61478;BME280;47345;52.334;10.392;2023-03-26T08:10:05;99626.77;;;8.80;78.02
61478;BME280;47345;52.334;10.392;2023-03-26T08:12:43;99623.45;;;8.83;77.97
61478;BME280;47345;52.334;10.392;2023-03-26T08:15:22;99622.65;;;8.84;77.66
61478;BME280;47345;52.334;10.392;2023-03-26T08:18:03;99624.52;;;8.86;77.80
61478;BME280;47345;52.334;10.392;2023-03-26T08:20:39;99623.52;;;8.89;77.86
61478;BME280;47345;52.334;10.392;2023-03-26T08:23:19;99616.33;;;8.92;77.17
61478;BME280;47345;52.334;10.392;2023-03-26T08:26:00;99617.34;;;8.97;76.93
61478;BME280;47345;52.334;10.392;2023-03-26T08:28:40;99621.11;;;9.04;76.90
61478;BME280;47345;52.334;10.392;2023-03-26T08:31:17;99618.76;;;9.13;77.23
61478;BME280;47345;52.334;10.392;2023-03-26T08:33:53;99620.99;;;9.24;77.05
61478;BME280;47345;52.334;10.392;2023-03-26T08:36:23;99620.15;;;9.34;76.86
61478;BME280;47345;52.334;10.392;2023-03-26T08:38:53;99619.60;;;9.45;76.75
61478;BME280;47345;52.334;10.392;2023-03-26T08:45:19;99618.78;;;9.64;76.09
61478;BME280;47345;52.334;10.392;2023-03-26T08:48:11;99617.26;;;9.72;75.49
61478;BME280;47345;52.334;10.392;2023-03-26T08:51:15;99621.21;;;9.75;74.96
61478;BME280;47345;52.334;10.392;2023-03-26T08:54:13;99626.02;;;9.77;75.25
61478;BME280;47345;52.334;10.392;2023-03-26T08:56:51;99627.46;;;9.75;74.64
61478;BME280;47345;52.334;10.392;2023-03-26T08:59:48;99626.05;;;9.75;74.54
61478;BME280;47345;52.334;10.392;2023-03-26T09:02:49;99627.58;;;9.77;74.24
61478;BME280;47345;52.334;10.392;2023-03-26T09:12:24;99625.52;;;9.87;73.21
61478;BME280;47345;52.334;10.392;2023-03-26T09:15:23;99625.63;;;9.88;72.60
61478;BME280;47345;52.334;10.392;2023-03-26T09:27:38;99626.34;;;10.01;73.03
61478;BME280;47345;52.334;10.392;2023-03-26T09:30:51;99624.29;;;10.04;72.39
61478;BME280;47345;52.334;10.392;2023-03-26T09:33:50;99621.75;;;10.08;72.46
61478;BME280;47345;52.334;10.392;2023-03-26T09:36:33;99618.50;;;10.11;72.37
61478;BME280;47345;52.334;10.392;2023-03-26T09:39:11;99616.63;;;10.16;71.87
61478;BME280;47345;52.334;10.392;2023-03-26T09:42:02;99621.13;;;10.20;71.47
61478;BME280;47345;52.334;10.392;2023-03-26T09:45:11;99618.58;;;10.24;71.99
61478;BME280;47345;52.334;10.392;2023-03-26T09:48:09;99616.38;;;10.30;71.36
61478;BME280;47345;52.334;10.392;2023-03-26T09:50:50;99617.95;;;10.36;72.11
61478;BME280;47345;52.334;10.392;2023-03-26T09:56:26;99622.15;;;10.41;71.93
61478;BME280;47345;52.334;10.392;2023-03-26T09:59:23;99620.25;;;10.41;71.72
61478;BME280;47345;52.334;10.392;2023-03-26T10:02:10;99615.30;;;10.40;72.04
61478;BME280;47345;52.334;10.392;2023-03-26T10:05:02;99609.98;;;10.42;72.53
61478;BME280;47345;52.334;10.392;2023-03-26T10:07:50;99610.17;;;10.49;72.27
61478;BME280;47345;52.334;10.392;2023-03-26T10:10:30;99609.15;;;10.57;72.42
61478;BME280;47345;52.334;10.392;2023-03-26T10:13:10;99600.77;;;10.60;72.83
61478;BME280;47345;52.334;10.392;2023-03-26T10:15:54;99602.05;;;10.64;73.12
61478;BME280;47345;52.334;10.392;2023-03-26T10:18:34;99603.02;;;10.63;73.18
61478;BME280;47345;52.334;10.392;2023-03-26T10:21:15;99601.29;;;10.64;73.10
61478;BME280;47345;52.334;10.392;2023-03-26T10:24:07;99600.14;;;10.66;73.25
61478;BME280;47345;52.334;10.392;2023-03-26T10:26:49;99593.77;;;10.66;73.26
61478;BME280;47345;52.334;10.392;2023-03-26T10:32:59;99582.64;;;10.67;72.96
61478;BME280;47345;52.334;10.392;2023-03-26T10:35:43;99576.41;;;10.65;73.05
61478;BME280;47345;52.334;10.392;2023-03-26T10:38:26;99575.27;;;10.62;72.94
61478;BME280;47345;52.334;10.392;2023-03-26T10:41:07;99581.56;;;10.60;72.82
61478;BME280;47345;52.334;10.392;2023-03-26T10:44:00;99583.13;;;10.59;73.35
61478;BME280;47345;52.334;10.392;2023-03-26T10:46:46;99579.88;;;10.60;73.01
61478;BME280;47345;52.334;10.392;2023-03-26T10:49:40;99583.98;;;10.58;72.36
61478;BME280;47345;52.334;10.392;2023-03-26T10:52:19;99582.98;;;10.62;72.49
61478;BME280;47345;52.334;10.392;2023-03-26T10:54:55;99583.86;;;10.67;72.78
61478;BME280;47345;52.334;10.392;2023-03-26T10:57:40;99585.04;;;10.70;72.76
61478;BME280;47345;52.334;10.392;2023-03-26T11:00:17;99582.27;;;10.74;72.29
61478;BME280;47345;52.334;10.392;2023-03-26T11:03:11;99578.49;;;10.81;72.15
61478;BME280;47345;52.334;10.392;2023-03-26T11:05:55;99578.70;;;10.89;71.89
61478;BME280;47345;52.334;10.392;2023-03-26T11:08:32;99578.50;;;10.95;72.01
61478;BME280;47345;52.334;10.392;2023-03-26T11:11:16;99573.36;;;11.03;71.52
61478;BME280;47345;52.334;10.392;2023-03-26T11:13:57;99572.45;;;11.08;71.12
61478;BME280;47345;52.334;10.392;2023-03-26T11:16:46;99568.39;;;11.11;71.58
61478;BME280;47345;52.334;10.392;2023-03-26T11:19:23;99568.95;;;11.19;71.50
61478;BME280;47345;52.334;10.392;2023-03-26T11:22:02;99570.20;;;11.27;70.43
61478;BME280;47345;52.334;10.392;2023-03-26T11:27:38;99570.92;;;11.37;70.04
61478;BME280;47345;52.334;10.392;2023-03-26T11:30:15;99564.72;;;11.42;69.57
61478;BME280;47345;52.334;10.392;2023-03-26T11:32:50;99561.70;;;11.49;69.76
61478;BME280;47345;52.334;10.392;2023-03-26T11:35:26;99557.22;;;11.52;69.92
61478;BME280;47345;52.334;10.392;2023-03-26T11:38:17;99556.61;;;11.53;69.96
61478;BME280;47345;52.334;10.392;2023-03-26T11:40:50;99554.21;;;11.55;69.93
61478;BME280;47345;52.334;10.392;2023-03-26T11:43:25;99553.56;;;11.62;69.86
61478;BME280;47345;52.334;10.392;2023-03-26T11:46:00;99550.86;;;11.69;69.51
61478;BME280;47345;52.334;10.392;2023-03-26T11:48:33;99549.72;;;11.76;68.90
61478;BME280;47345;52.334;10.392;2023-03-26T11:51:08;99547.93;;;11.80;69.00
61478;BME280;47345;52.334;10.392;2023-03-26T11:53:40;99551.89;;;11.86;69.73
61478;BME280;47345;52.334;10.392;2023-03-26T11:56:22;99554.31;;;11.90;69.16
61478;BME280;47345;52.334;10.392;2023-03-26T11:58:57;99559.77;;;11.88;68.51
61478;BME280;47345;52.334;10.392;2023-03-26T12:01:46;99553.75;;;11.86;68.39
61478;BME280;47345;52.334;10.392;2023-03-26T12:04:24;99550.58;;;11.86;68.27
61478;BME280;47345;52.334;10.392;2023-03-26T12:07:06;99550.45;;;11.88;68.32
61478;BME280;47345;52.334;10.392;2023-03-26T12:09:37;99554.25;;;11.86;68.36
61478;BME280;47345;52.334;10.392;2023-03-26T12:12:18;99550.65;;;11.87;68.12
61478;BME280;47345;52.334;10.392;2023-03-26T12:14:49;99553.38;;;11.86;67.77
61478;BME280;47345;52.334;10.392;2023-03-26T12:17:30;99547.07;;;11.86;68.05
61478;BME280;47345;52.334;10.392;2023-03-26T12:20:20;99546.65;;;11.87;67.65
61478;BME280;47345;52.334;10.392;2023-03-26T12:22:52;99544.91;;;11.88;67.48
61478;BME280;47345;52.334;10.392;2023-03-26T12:25:28;99543.15;;;11.91;67.48
61478;BME280;47345;52.334;10.392;2023-03-26T12:28:01;99541.89;;;11.91;67.56
61478;BME280;47345;52.334;10.392;2023-03-26T12:30:33;99544.09;;;11.94;67.48
61478;BME280;47345;52.334;10.392;2023-03-26T12:33:12;99534.76;;;11.96;67.25
61478;BME280;47345;52.334;10.392;2023-03-26T12:35:44;99535.11;;;11.98;67.13
61478;BME280;47345;52.334;10.392;2023-03-26T12:38:19;99531.50;;;12.02;67.02
61478;BME280;47345;52.334;10.392;2023-03-26T12:41:04;99532.70;;;12.11;67.10
61478;BME280;47345;52.334;10.392;2023-03-26T12:43:41;99533.88;;;12.19;66.97
61478;BME280;47345;52.334;10.392;2023-03-26T12:46:33;99532.77;;;12.25;66.60
61478;BME280;47345;52.334;10.392;2023-03-26T12:49:24;99537.16;;;12.26;66.55
61478;BME280;47345;52.334;10.392;2023-03-26T12:51:57;99534.46;;;12.25;66.20
61478;BME280;47345;52.334;10.392;2023-03-26T12:54:39;99533.41;;;12.24;65.96
61478;BME280;47345;52.334;10.392;2023-03-26T12:57:19;99530.98;;;12.24;66.02
61478;BME280;47345;52.334;10.392;2023-03-26T13:00:08;99531.70;;;12.24;65.27
61478;BME280;47345;52.334;10.392;2023-03-26T13:03:03;99529.40;;;12.27;65.54
61478;BME280;47345;52.334;10.392;2023-03-26T13:05:45;99528.87;;;12.31;65.55
61478;BME280;47345;52.334;10.392;2023-03-26T13:08:37;99527.89;;;12.35;65.55
61478;BME280;47345;52.334;10.392;2023-03-26T13:11:23;99528.92;;;12.32;65.21
61478;BME280;47345;52.334;10.392;2023-03-26T13:16:56;99524.71;;;12.12;65.68
61478;BME280;47345;52.334;10.392;2023-03-26T13:19:36;99522.53;;;12.09;66.11
61478;BME280;47345;52.334;10.392;2023-03-26T13:22:19;99519.46;;;12.09;65.75
61478;BME280;47345;52.334;10.392;2023-03-26T13:24:57;99516.90;;;12.10;65.79
61478;BME280;47345;52.334;10.392;2023-03-26T13:27:43;99513.79;;;12.11;66.04
61478;BME280;47345;52.334;10.392;2023-03-26T13:30:26;99511.91;;;12.09;65.57
61478;BME280;47345;52.334;10.392;2023-03-26T13:33:10;99509.83;;;12.07;66.20
61478;BME280;47345;52.334;10.392;2023-03-26T13:35:48;99506.80;;;12.07;66.19
61478;BME280;47345;52.334;10.392;2023-03-26T13:38:52;99500.16;;;12.08;66.00
61478;BME280;47345;52.334;10.392;2023-03-26T13:41:35;99499.19;;;12.10;66.69
61478;BME280;47345;52.334;10.392;2023-03-26T13:44:16;99499.09;;;12.11;65.71
61478;BME280;47345;52.334;10.392;2023-03-26T13:46:54;99501.00;;;12.07;65.61
61478;BME280;47345;52.334;10.392;2023-03-26T13:49:31;99499.11;;;12.06;65.34
61478;BME280;47345;52.334;10.392;2023-03-26T13:52:08;99496.48;;;12.05;65.60
61478;BME280;47345;52.334;10.392;2023-03-26T13:54:44;99494.80;;;12.06;65.43
61478;BME280;47345;52.334;10.392;2023-03-26T13:57:21;99493.36;;;12.05;65.33
61478;BME280;47345;52.334;10.392;2023-03-26T13:59:57;99494.03;;;12.03;65.72
61478;BME280;47345;52.334;10.392;2023-03-26T14:02:34;99492.40;;;12.01;65.29
61478;BME280;47345;52.334;10.392;2023-03-26T14:05:12;99492.30;;;11.99;65.23
61478;BME280;47345;52.334;10.392;2023-03-26T14:07:47;99496.05;;;11.95;65.45
61478;BME280;47345;52.334;10.392;2023-03-26T14:10:24;99489.27;;;11.93;65.21
61478;BME280;47345;52.334;10.392;2023-03-26T14:12:57;99490.64;;;11.93;65.26
61478;BME280;47345;52.334;10.392;2023-03-26T14:15:31;99494.55;;;11.91;64.90
61478;BME280;47345;52.334;10.392;2023-03-26T14:18:17;99491.59;;;11.85;65.24